Time;durP1;ratioP1;P1;durP2;ratioP2;P2;SDS_P1;SDS_P2;PMS_P1;PMS_P2;Temp;Humidity;BMP_temperature;BMP_pressure;BME280_temperature;BME280_humidity;BME280_pressure;Samples;Min_cycle;Max_cycle;Signal;HPM_P1;HPM_P2
2021/05/20 00:00:47;;;;;;;5.50;5.00;;;11.00;99.90;;;;;;5112662;28;20199;-60
2021/05/20 00:03:14;;;;;;;6.07;5.27;;;11.00;99.90;;;;;;5112841;28;20200;-61
2021/05/20 00:05:42;;;;;;;5.47;4.93;;;11.00;99.90;;;;;;5112871;28;20282;-60
2021/05/20 00:08:09;;;;;;;6.77;5.53;;;11.00;99.90;;;;;;5112806;28;20302;-60
2021/05/20 00:10:37;;;;;;;5.80;5.17;;;11.00;99.90;;;;;;5112728;28;20290;-59
2021/05/20 00:13:05;;;;;;;5.40;4.90;;;11.00;99.90;;;;;;5112718;28;20199;-61
2021/05/20 00:15:32;;;;;;;5.87;5.13;;;11.10;99.90;;;;;;5112399;28;20199;-60
2021/05/20 00:18:00;;;;;;;5.40;4.90;;;11.10;99.90;;;;;;5112982;28;20291;-60
2021/05/20 00:20:27;;;;;;;5.87;5.37;;;11.10;99.90;;;;;;5116595;28;20294;-59
2021/05/20 00:22:55;;;;;;;7.03;5.30;;;11.00;99.90;;;;;;5116383;28;20196;-60
2021/05/20 00:25:22;;;;;;;5.97;5.47;;;11.00;99.90;;;;;;5116103;28;20290;-60
2021/05/20 00:27:49;;;;;;;6.53;5.30;;;10.90;99.90;;;;;;5116316;28;20214;-60
2021/05/20 00:30:18;;;;;;;5.60;5.10;;;10.90;99.90;;;;;;5115775;28;20298;-62
2021/05/20 00:32:45;;;;;;;5.73;5.10;;;10.90;99.90;;;;;;5116265;28;20291;-60
2021/05/20 00:35:13;;;;;;;5.53;4.93;;;11.00;99.90;;;;;;5115937;28;20714;-62
2021/05/20 00:37:40;;;;;;;4.70;4.20;;;11.00;99.90;;;;;;5115898;28;20229;-60
2021/05/20 00:40:09;;;;;;;5.70;4.17;;;11.00;99.90;;;;;;5116095;28;20271;-60
2021/05/20 00:42:36;;;;;;;4.63;4.23;;;11.00;99.90;;;;;;5115773;28;20291;-60
2021/05/20 00:45:06;;;;;;;4.03;3.63;;;10.90;99.90;;;;;;5115849;28;20278;-60
2021/05/20 00:47:35;;;;;;;4.40;4.00;;;10.90;99.90;;;;;;5115591;28;20819;-61
2021/05/20 00:50:05;;;;;;;4.50;3.80;;;10.90;99.90;;;;;;5115930;28;20195;-60
2021/05/20 00:52:33;;;;;;;5.90;3.90;;;10.80;99.90;;;;;;5115945;28;20235;-60
2021/05/20 00:55:02;;;;;;;4.23;3.83;;;10.80;99.90;;;;;;5115814;28;20199;-60
2021/05/20 00:57:30;;;;;;;3.90;3.53;;;10.80;99.90;;;;;;5115510;28;20306;-60
2021/05/20 01:00:04;;;;;;;4.23;3.83;;;10.80;99.90;;;;;;5115305;28;20615;-60
2021/05/20 01:02:32;;;;;;;4.00;3.70;;;10.70;99.90;;;;;;5115462;28;20279;-61
2021/05/20 01:05:02;;;;;;;4.30;3.90;;;10.60;99.90;;;;;;5115746;28;20294;-60
2021/05/20 01:07:29;;;;;;;5.73;4.00;;;10.40;99.90;;;;;;5115520;28;20635;-60
2021/05/20 01:09:57;;;;;;;4.83;3.90;;;10.40;99.90;;;;;;5115497;28;20282;-60
2021/05/20 01:12:24;;;;;;;5.07;4.53;;;10.50;99.90;;;;;;5115558;28;20208;-59
2021/05/20 01:14:52;;;;;;;4.67;4.27;;;10.40;99.90;;;;;;5115112;28;20231;-61
2021/05/20 01:17:20;;;;;;;5.77;4.37;;;10.50;99.90;;;;;;5114887;28;20712;-60
2021/05/20 01:19:48;;;;;;;4.53;4.13;;;10.50;99.90;;;;;;5115078;28;20240;-61
2021/05/20 01:22:16;;;;;;;4.23;3.83;;;10.60;99.90;;;;;;5115191;28;20250;-60
2021/05/20 01:24:44;;;;;;;4.30;3.93;;;10.50;99.90;;;;;;5114482;28;20298;-60
2021/05/20 01:27:13;;;;;;;4.07;3.67;;;10.50;99.90;;;;;;5114910;28;20286;-61
2021/05/20 01:29:42;;;;;;;4.33;3.93;;;10.50;99.90;;;;;;5114119;28;20294;-60
2021/05/20 01:32:11;;;;;;;4.07;3.70;;;10.60;99.90;;;;;;5115040;28;20241;-61
2021/05/20 01:34:39;;;;;;;4.50;3.40;;;10.70;99.90;;;;;;5115092;28;20289;-60
2021/05/20 01:37:08;;;;;;;4.00;3.60;;;10.60;99.90;;;;;;5114650;28;20250;-61
2021/05/20 01:39:36;;;;;;;4.40;4.00;;;10.60;99.90;;;;;;5114820;28;20326;-60
2021/05/20 01:42:05;;;;;;;4.33;3.93;;;10.50;99.90;;;;;;5114787;28;20234;-61
2021/05/20 01:44:32;;;;;;;3.60;3.30;;;10.50;99.90;;;;;;5114603;28;20630;-60
2021/05/20 01:46:59;;;;;;;4.33;3.83;;;10.30;99.90;;;;;;5114629;28;20230;-61
2021/05/20 01:49:27;;;;;;;4.33;3.93;;;10.30;99.90;;;;;;5114808;28;20218;-60
2021/05/20 01:51:55;;;;;;;3.70;3.40;;;10.20;99.90;;;;;;5114685;28;20286;-60
2021/05/20 01:54:22;;;;;;;5.23;4.00;;;10.20;99.90;;;;;;5114660;28;20206;-60
2021/05/20 01:56:50;;;;;;;4.80;4.00;;;10.20;99.90;;;;;;5114494;28;20219;-60
2021/05/20 01:59:17;;;;;;;4.10;3.70;;;10.30;99.90;;;;;;5114397;28;20286;-60
2021/05/20 02:01:45;;;;;;;4.60;4.20;;;10.50;99.90;;;;;;5114259;28;20290;-60
2021/05/20 02:04:12;;;;;;;4.67;3.87;;;10.60;99.90;;;;;;5114123;28;20199;-60
2021/05/20 02:06:39;;;;;;;4.57;4.17;;;10.60;99.90;;;;;;5114394;28;20221;-60
2021/05/20 02:09:07;;;;;;;4.97;4.23;;;10.70;99.90;;;;;;5114082;28;20745;-60
2021/05/20 02:11:35;;;;;;;4.90;4.40;;;10.70;99.90;;;;;;5114255;28;20607;-60
2021/05/20 02:14:03;;;;;;;5.30;4.20;;;10.70;99.90;;;;;;5114075;28;20199;-61
2021/05/20 02:16:31;;;;;;;4.90;4.40;;;10.80;99.90;;;;;;5113981;28;20314;-60
2021/05/20 02:18:58;;;;;;;5.40;4.17;;;10.80;99.90;;;;;;5113832;28;20210;-60
2021/05/20 02:21:25;;;;;;;4.97;4.47;;;10.90;99.90;;;;;;5114096;28;20302;-61
2021/05/20 02:23:53;;;;;;;5.23;4.33;;;10.90;99.90;;;;;;5114131;28;20204;-60
2021/05/20 02:26:20;;;;;;;5.03;4.07;;;10.90;99.90;;;;;;5113850;28;20284;-61
2021/05/20 02:28:47;;;;;;;4.60;4.10;;;10.90;99.90;;;;;;5113943;28;20206;-60
2021/05/20 02:31:16;;;;;;;4.80;4.00;;;10.80;99.90;;;;;;5113478;28;20647;-60
2021/05/20 02:33:43;;;;;;;4.73;4.13;;;10.80;99.90;;;;;;5114010;28;20237;-60
2021/05/20 02:36:11;;;;;;;4.57;4.17;;;10.60;99.90;;;;;;5113500;28;20302;-60
2021/05/20 02:38:38;;;;;;;5.20;4.70;;;10.40;99.90;;;;;;5113262;28;20322;-61
2021/05/20 02:41:05;;;;;;;5.47;4.33;;;10.50;99.90;;;;;;5113643;28;20215;-61
2021/05/20 02:43:33;;;;;;;6.73;4.77;;;10.60;99.90;;;;;;5113490;28;20714;-61
2021/05/20 02:46:01;;;;;;;5.77;4.80;;;10.60;99.90;;;;;;5113366;28;20282;-61
2021/05/20 02:48:30;;;;;;;4.70;4.07;;;10.60;99.90;;;;;;5113523;28;20265;-60
2021/05/20 02:50:57;;;;;;;6.30;5.10;;;10.60;99.90;;;;;;5113500;28;20367;-61
2021/05/20 02:53:24;;;;;;;4.93;4.17;;;10.60;99.90;;;;;;5113604;28;20246;-60
2021/05/20 02:55:52;;;;;;;5.90;5.30;;;10.60;99.90;;;;;;5113274;28;20196;-61
2021/05/20 02:58:20;;;;;;;5.83;5.23;;;10.60;99.90;;;;;;5113133;28;20247;-60
2021/05/20 03:00:48;;;;;;;6.03;5.43;;;10.60;99.90;;;;;;5112882;28;20566;-60
2021/05/20 03:03:16;;;;;;;6.90;5.93;;;10.60;99.90;;;;;;5113416;28;20280;-61
2021/05/20 03:05:45;;;;;;;6.57;5.93;;;10.70;99.90;;;;;;5113161;28;20207;-60
2021/05/20 03:08:13;;;;;;;6.83;6.13;;;10.70;99.90;;;;;;5113148;28;20196;-61
2021/05/20 03:10:40;;;;;;;6.50;5.70;;;10.60;99.90;;;;;;5113345;28;20290;-60
2021/05/20 03:13:08;;;;;;;10.77;6.30;;;10.70;99.90;;;;;;5113351;28;20235;-60
2021/05/20 03:15:35;;;;;;;7.10;6.40;;;10.60;99.90;;;;;;5112690;28;20295;-60
2021/05/20 03:18:03;;;;;;;7.00;6.27;;;10.60;99.90;;;;;;5112944;28;20729;-60
2021/05/20 03:20:30;;;;;;;7.97;6.50;;;10.70;99.90;;;;;;5113197;28;20290;-60
2021/05/20 03:22:59;;;;;;;6.90;6.13;;;10.60;99.90;;;;;;5113204;28;20290;-61
2021/05/20 03:25:26;;;;;;;7.57;6.30;;;10.70;99.90;;;;;;5113122;28;20203;-61
2021/05/20 03:27:54;;;;;;;7.23;6.53;;;10.70;99.90;;;;;;5112893;28;20237;-60
2021/05/20 03:30:22;;;;;;;7.53;6.70;;;10.70;99.90;;;;;;5113019;28;20312;-60
2021/05/20 03:32:50;;;;;;;9.07;7.43;;;10.70;99.90;;;;;;5112968;28;20249;-60
2021/05/20 03:35:17;;;;;;;7.53;6.57;;;10.60;99.90;;;;;;5112759;28;20324;-62
2021/05/20 03:37:44;;;;;;;9.27;7.20;;;10.80;99.90;;;;;;5112823;28;20318;-62
2021/05/20 03:40:13;;;;;;;8.37;6.90;;;10.80;99.90;;;;;;5112822;28;20194;-60
2021/05/20 03:42:41;;;;;;;9.53;6.60;;;10.80;99.90;;;;;;5113065;28;20281;-61
2021/05/20 03:45:09;;;;;;;7.27;6.10;;;10.80;99.90;;;;;;5112588;28;20294;-62
2021/05/20 03:47:38;;;;;;;6.80;6.10;;;10.80;99.90;;;;;;5113011;28;20282;-61
2021/05/20 03:50:07;;;;;;;6.90;6.20;;;10.80;99.90;;;;;;5112836;28;20737;-61
2021/05/20 03:52:34;;;;;;;7.30;6.60;;;10.90;99.90;;;;;;5113258;28;20622;-60
2021/05/20 03:55:01;;;;;;;6.67;6.00;;;10.80;99.90;;;;;;5116946;28;20238;-60
2021/05/20 03:57:29;;;;;;;7.23;5.93;;;10.90;99.90;;;;;;5116613;28;20670;-60
2021/05/20 04:00:01;;;;;;;6.80;6.13;;;10.90;99.90;;;;;;5116523;28;20640;-60
2021/05/20 04:02:28;;;;;;;8.03;5.60;;;10.80;99.90;;;;;;5116726;28;20238;-63
2021/05/20 04:04:55;;;;;;;6.37;5.77;;;10.90;99.90;;;;;;5116554;28;20204;-61
2021/05/20 04:07:22;;;;;;;6.57;5.23;;;10.90;99.90;;;;;;5116705;28;20226;-60
2021/05/20 04:09:50;;;;;;;6.43;5.83;;;11.00;99.90;;;;;;5116683;28;20199;-61
2021/05/20 04:12:18;;;;;;;5.97;5.30;;;10.90;99.90;;;;;;5116623;28;20201;-60
2021/05/20 04:14:46;;;;;;;7.23;5.50;;;11.00;99.90;;;;;;5116188;28;20221;-61
2021/05/20 04:17:13;;;;;;;6.73;5.20;;;11.10;99.90;;;;;;5116081;28;20251;-61
2021/05/20 04:19:40;;;;;;;7.27;5.33;;;11.10;99.90;;;;;;5116644;28;20286;-60
2021/05/20 04:22:08;;;;;;;6.77;5.23;;;11.10;99.90;;;;;;5116428;28;20199;-60
2021/05/20 04:24:35;;;;;;;6.10;4.90;;;11.20;99.90;;;;;;5116439;28;20199;-60
2021/05/20 04:27:05;;;;;;;5.87;4.63;;;11.20;99.90;;;;;;5115993;28;20238;-60
2021/05/20 04:29:32;;;;;;;5.30;4.80;;;11.30;99.90;;;;;;5116010;28;20195;-61
2021/05/20 04:32:00;;;;;;;5.63;5.13;;;11.20;99.90;;;;;;5116067;28;20235;-60
2021/05/20 04:34:27;;;;;;;5.60;5.00;;;11.20;99.90;;;;;;5115936;28;20201;-60
2021/05/20 04:36:55;;;;;;;5.57;4.97;;;11.20;99.90;;;;;;5115811;28;20207;-61
2021/05/20 04:39:22;;;;;;;6.33;4.83;;;11.20;99.90;;;;;;5116028;28;20231;-61
2021/05/20 04:41:50;;;;;;;5.73;4.83;;;11.20;99.90;;;;;;5115975;28;20606;-60
2021/05/20 04:44:17;;;;;;;6.20;4.53;;;11.30;99.90;;;;;;5115895;28;20679;-61
2021/05/20 04:46:44;;;;;;;5.20;4.70;;;11.20;99.90;;;;;;5115834;28;20321;-61
2021/05/20 04:49:12;;;;;;;6.13;5.53;;;11.30;99.90;;;;;;5115907;28;20229;-60
2021/05/20 04:51:41;;;;;;;6.23;4.37;;;11.30;99.90;;;;;;5115638;28;20225;-60
2021/05/20 04:54:09;;;;;;;5.87;4.57;;;11.40;99.90;;;;;;5115542;28;20629;-60
2021/05/20 04:56:36;;;;;;;5.07;4.57;;;11.40;99.90;;;;;;5115752;28;20582;-62
2021/05/20 04:59:04;;;;;;;5.13;4.63;;;11.50;99.90;;;;;;5115483;28;20624;-61
2021/05/20 05:01:32;;;;;;;5.03;4.53;;;11.50;99.90;;;;;;5115498;28;20199;-61
2021/05/20 05:04:00;;;;;;;5.53;4.57;;;11.50;99.90;;;;;;5115377;28;20204;-61
2021/05/20 05:06:28;;;;;;;5.13;4.60;;;11.40;99.90;;;;;;5114563;28;20203;-60
2021/05/20 05:08:55;;;;;;;5.73;4.87;;;11.50;99.90;;;;;;5115237;28;20542;-60
2021/05/20 05:11:23;;;;;;;5.40;4.90;;;11.50;99.90;;;;;;5115490;28;20242;-61
2021/05/20 05:13:51;;;;;;;5.30;4.80;;;11.50;99.90;;;;;;5114932;28;20198;-60
2021/05/20 05:16:18;;;;;;;6.07;5.40;;;11.50;99.90;;;;;;5114905;28;20249;-61
2021/05/20 05:18:46;;;;;;;6.43;5.27;;;11.60;99.90;;;;;;5115257;28;20243;-60
2021/05/20 05:21:13;;;;;;;7.20;5.07;;;11.60;99.90;;;;;;5115145;28;20294;-60
2021/05/20 05:23:41;;;;;;;5.63;4.93;;;11.60;99.90;;;;;;5115202;28;20203;-60
2021/05/20 05:26:09;;;;;;;6.00;5.10;;;11.50;99.90;;;;;;5115495;28;20195;-60
2021/05/20 05:28:36;;;;;;;5.83;5.07;;;11.50;99.90;;;;;;5115187;28;20195;-60
2021/05/20 05:31:03;;;;;;;6.80;5.20;;;11.60;99.90;;;;;;5114476;28;20569;-61
2021/05/20 05:33:31;;;;;;;5.50;5.00;;;11.60;99.90;;;;;;5114534;28;20294;-60
2021/05/20 05:35:58;;;;;;;6.83;6.23;;;11.70;99.90;;;;;;5114364;28;20758;-62
2021/05/20 05:38:25;;;;;;;5.87;5.03;;;11.90;99.90;;;;;;5114617;28;20231;-66
2021/05/20 05:40:53;;;;;;;6.67;5.20;;;12.10;99.90;;;;;;5114927;28;20313;-66
2021/05/20 05:43:21;;;;;;;7.90;5.10;;;12.30;99.90;;;;;;5114663;28;20246;-65
2021/05/20 05:45:48;;;;;;;5.87;4.50;;;12.40;99.90;;;;;;5114520;28;20291;-64
2021/05/20 05:48:16;;;;;;;5.30;4.63;;;12.60;99.90;;;;;;5114779;28;20202;-64
2021/05/20 05:50:44;;;;;;;5.40;4.90;;;12.70;99.90;;;;;;5114689;28;20199;-64
2021/05/20 05:53:27;;;;;;;5.97;4.83;;;12.80;99.90;;;;;;5114612;28;20271;-64
2021/05/20 05:55:56;;;;;;;4.90;4.37;;;12.80;99.90;;;;;;5113955;28;20291;-64
2021/05/20 05:58:23;;;;;;;6.63;4.30;;;12.70;99.90;;;;;;5114120;28;20219;-64
2021/05/20 06:00:50;;;;;;;5.20;4.70;;;12.60;99.90;;;;;;5114181;28;20203;-64
2021/05/20 06:03:18;;;;;;;5.07;4.57;;;12.60;99.90;;;;;;5114272;28;20302;-64
2021/05/20 06:05:47;;;;;;;5.13;4.63;;;12.50;99.90;;;;;;5114135;28;20781;-65
2021/05/20 06:08:15;;;;;;;6.70;4.73;;;12.50;99.90;;;;;;5113300;28;20896;-64
2021/05/20 06:10:43;;;;;;;5.07;4.50;;;12.50;99.90;;;;;;5114081;28;20241;-62
2021/05/20 06:13:11;;;;;;;6.23;4.83;;;12.50;99.90;;;;;;5114121;28;20231;-63
2021/05/20 06:15:39;;;;;;;6.13;4.53;;;12.40;99.90;;;;;;5113419;28;20231;-64
2021/05/20 06:18:06;;;;;;;7.27;5.30;;;12.40;99.90;;;;;;5113896;28;20211;-64
2021/05/20 06:20:33;;;;;;;5.73;4.67;;;12.40;99.90;;;;;;5113996;28;20237;-64
2021/05/20 06:23:01;;;;;;;6.00;4.80;;;12.40;99.90;;;;;;5114041;28;20203;-64
2021/05/20 06:25:29;;;;;;;5.10;4.60;;;12.50;99.90;;;;;;5113264;28;20207;-65
2021/05/20 06:27:56;;;;;;;5.70;5.10;;;12.60;99.90;;;;;;5113764;28;20260;-65
2021/05/20 06:30:24;;;;;;;5.97;5.37;;;12.80;99.90;;;;;;5113688;28;20297;-66
2021/05/20 06:32:52;;;;;;;7.37;5.77;;;13.00;99.90;;;;;;5113368;28;20708;-64
2021/05/20 06:35:19;;;;;;;6.00;5.03;;;13.10;99.90;;;;;;5113444;28;20298;-64
2021/05/20 06:37:48;;;;;;;7.57;5.33;;;13.30;99.90;;;;;;5113480;28;20235;-62
2021/05/20 06:40:17;;;;;;;9.33;5.70;;;13.40;99.90;;;;;;5111931;28;20590;-62
2021/05/20 06:42:44;;;;;;;7.17;5.70;;;13.40;99.90;;;;;;5113098;28;20203;-63
2021/05/20 06:45:13;;;;;;;6.17;5.20;;;13.50;99.90;;;;;;5113228;28;20231;-64
2021/05/20 06:47:41;;;;;;;5.40;4.87;;;13.60;99.90;;;;;;5112852;28;20203;-64
2021/05/20 06:50:09;;;;;;;8.27;5.70;;;13.60;99.90;;;;;;5113373;28;20294;-64
2021/05/20 06:52:37;;;;;;;6.20;5.30;;;13.60;99.90;;;;;;5113314;28;20291;-61
2021/05/20 06:55:05;;;;;;;5.27;4.77;;;13.60;99.90;;;;;;5112946;28;20199;-62
2021/05/20 06:59:56;;;;;;;7.57;5.37;;;13.70;99.90;;;;;;5112830;28;20207;-61
2021/05/20 07:00:19;;;;;;;6.30;5.33;;;13.90;99.90;;;;;;5113139;28;20672;-61
2021/05/20 07:02:48;;;;;;;6.03;5.40;;;13.90;99.90;;;;;;5112851;28;20238;-62
2021/05/20 07:05:15;;;;;;;7.18;5.60;;;14.00;99.90;;;;;;5112734;28;20702;-61
2021/05/20 07:07:43;;;;;;;6.07;5.47;;;14.10;99.90;;;;;;5112962;28;20670;-61
2021/05/20 07:10:12;;;;;;;6.47;5.23;;;14.10;99.90;;;;;;5112932;28;20202;-61
2021/05/20 07:12:39;;;;;;;6.33;5.63;;;14.00;99.90;;;;;;5112973;28;20229;-61
2021/05/20 07:15:08;;;;;;;5.97;5.37;;;13.90;99.90;;;;;;5112536;28;20294;-62
2021/05/20 07:17:35;;;;;;;6.83;5.80;;;13.80;99.90;;;;;;5112486;28;20252;-61
2021/05/20 07:20:05;;;;;;;7.13;6.43;;;13.80;99.90;;;;;;5112910;28;20214;-63
2021/05/20 07:22:33;;;;;;;7.27;5.60;;;13.80;99.90;;;;;;5112946;28;20243;-61
2021/05/20 07:25:04;;;;;;;7.87;7.07;;;13.70;99.90;;;;;;5112501;28;20671;-61
2021/05/20 07:27:32;;;;;;;6.70;6.00;;;14.00;99.90;;;;;;5112714;28;20187;-61
2021/05/20 07:30:00;;;;;;;8.80;7.20;;;14.40;99.90;;;;;;5116803;28;20227;-60
2021/05/20 07:32:29;;;;;;;8.05;7.25;;;14.50;99.90;;;;;;5116895;28;20207;-62
2021/05/20 07:35:00;;;;;;;10.90;9.50;;;14.60;99.90;;;;;;5116972;28;20623;-61
2021/05/20 07:37:28;;;;;;;10.35;9.27;;;14.70;99.90;;;;;;5116765;28;20195;-61
2021/05/20 07:39:56;;;;;;;10.77;9.63;;;14.70;99.90;;;;;;5116879;28;20225;-60
2021/05/20 07:42:23;;;;;;;11.13;9.93;;;14.80;99.90;;;;;;5116455;28;20238;-61
2021/05/20 07:44:54;;;;;;;11.70;10.60;;;14.90;99.90;;;;;;5115226;28;20291;-60
2021/05/20 07:47:22;;;;;;;10.13;9.13;;;15.00;99.90;;;;;;5116644;28;20183;-60
2021/05/20 07:49:50;;;;;;;12.15;10.40;;;14.90;99.90;;;;;;5116586;28;20195;-61
2021/05/20 07:52:19;;;;;;;10.75;9.75;;;14.90;99.90;;;;;;5115250;28;20252;-62
2021/05/20 07:54:47;;;;;;;10.93;9.95;;;14.90;99.90;;;;;;5107587;28;20686;-62
2021/05/20 07:57:15;;;;;;;10.80;9.68;;;15.20;99.90;;;;;;5116276;28;20294;-59
2021/05/20 07:59:42;;;;;;;11.50;10.27;;;15.40;99.90;;;;;;5116209;28;20763;-59
2021/05/20 08:02:11;;;;;;;11.27;10.23;;;15.60;99.90;;;;;;5116450;28;20557;-60
2021/05/20 08:04:40;;;;;;;10.02;9.13;;;15.60;99.90;;;;;;5116523;28;20242;-60
2021/05/20 08:07:27;;;;;;;9.70;8.82;;;15.90;99.90;;;;;;5116138;28;20639;-61
2021/05/20 08:10:07;;;;;;;9.30;8.50;;;16.10;99.90;;;;;;5116107;28;20248;-63
2021/05/20 08:12:35;;;;;;;9.95;8.95;;;16.20;99.90;;;;;;5116206;28;20187;-61
2021/05/20 08:15:03;;;;;;;9.73;8.82;;;16.00;99.90;;;;;;5115856;28;20204;-62
2021/05/20 08:17:31;;;;;;;10.10;9.20;;;15.70;99.90;;;;;;5116249;28;20200;-62
2021/05/20 08:19:58;;;;;;;10.35;9.35;;;15.70;99.90;;;;;;5116174;28;20215;-62
2021/05/20 08:22:26;;;;;;;10.10;9.20;;;15.80;99.90;;;;;;5116191;28;20229;-63
2021/05/20 08:24:53;;;;;;;10.18;9.27;;;16.00;99.90;;;;;;5115878;28;20203;-60
2021/05/20 08:27:22;;;;;;;9.50;8.70;;;16.40;99.90;;;;;;5115857;28;20569;-61
2021/05/20 08:29:50;;;;;;;9.98;8.88;;;16.60;99.90;;;;;;5115908;28;20550;-60
2021/05/20 08:32:17;;;;;;;8.18;7.55;;;16.80;99.90;;;;;;5115890;28;20290;-65
2021/05/20 08:34:44;;;;;;;9.77;8.95;;;17.10;99.90;;;;;;5115622;28;20235;-61
2021/05/20 08:37:12;;;;;;;8.95;7.93;;;17.10;99.90;;;;;;5115888;28;20294;-61
2021/05/20 08:39:39;;;;;;;9.13;8.25;;;16.90;99.90;;;;;;5115045;28;20322;-66
2021/05/20 08:42:07;;;;;;;8.95;8.05;;;16.90;99.90;;;;;;5115604;28;20647;-61
2021/05/20 08:44:35;;;;;;;8.30;7.60;;;16.90;99.90;;;;;;5115671;28;20235;-61
2021/05/20 08:47:07;;;;;;;9.63;8.70;;;16.90;99.90;;;;;;5115430;28;20191;-64
2021/05/20 08:49:34;;;;;;;9.20;8.30;;;16.80;99.90;;;;;;5115696;28;20291;-61
2021/05/20 08:52:01;;;;;;;9.85;8.70;;;16.80;99.90;;;;;;5115626;28;20203;-63
2021/05/20 08:54:46;;;;;;;8.43;7.72;;;16.80;99.90;;;;;;5115806;28;20183;-61
2021/05/20 08:57:14;;;;;;;8.00;7.30;;;16.70;99.90;;;;;;5115453;28;20290;-61
2021/05/20 08:59:42;;;;;;;7.70;7.10;;;16.60;99.90;;;;;;5115268;28;20313;-62
2021/05/20 09:02:22;;;;;;;9.45;8.55;;;16.50;99.90;;;;;;5115357;28;20203;-60
2021/05/20 09:05:00;;;;;;;8.95;8.15;;;16.40;99.90;;;;;;5115351;28;20273;-63
2021/05/20 09:07:30;;;;;;;10.25;9.35;;;16.10;99.90;;;;;;5114644;28;20180;-62
2021/05/20 09:10:09;;;;;;;11.02;9.95;;;15.80;99.90;;;;;;5114939;28;20188;-62
2021/05/20 09:12:36;;;;;;;10.55;9.55;;;15.70;99.90;;;;;;5114980;28;20204;-63
2021/05/20 09:15:14;;;;;;;10.05;9.15;;;15.50;99.90;;;;;;5114231;28;20252;-61
2021/05/20 09:17:42;;;;;;;9.02;8.07;;;15.40;99.90;;;;;;5115118;28;20187;-62
2021/05/20 09:20:11;;;;;;;8.40;7.60;;;15.50;99.90;;;;;;5114712;28;20648;-61
2021/05/20 09:22:39;;;;;;;7.32;6.72;;;15.80;99.90;;;;;;5115112;28;20290;-62
2021/05/20 09:25:08;;;;;;;7.75;7.05;;;16.20;99.90;;;;;;5114554;28;20599;-61
2021/05/20 09:27:38;;;;;;;6.57;5.97;;;16.90;99.90;;;;;;5114938;28;20203;-61
2021/05/20 09:30:13;;;;;;;7.90;7.10;;;17.40;99.90;;;;;;5114758;28;20250;-62
2021/05/20 09:32:42;;;;;;;7.32;6.63;;;17.50;99.90;;;;;;5114484;28;20183;-61
2021/05/20 09:35:10;;;;;;;5.90;5.40;;;17.50;99.90;;;;;;5114760;28;20708;-61
2021/05/20 09:37:53;;;;;;;7.20;6.57;;;17.30;99.90;;;;;;5114322;28;20711;-61
2021/05/20 09:40:23;;;;;;;6.80;6.20;;;17.20;99.90;;;;;;5114688;28;20258;-62
2021/05/20 09:42:51;;;;;;;6.70;5.97;;;17.00;99.90;;;;;;5114185;28;20703;-62
2021/05/20 09:45:21;;;;;;;6.55;5.95;;;16.70;99.90;;;;;;5113786;28;20646;-61
2021/05/20 09:47:49;;;;;;;5.60;5.10;;;16.50;99.90;;;;;;5114158;28;20187;-63
2021/05/20 09:50:19;;;;;;;5.20;4.80;;;16.20;99.90;;;;;;5114031;28;20227;-62
2021/05/20 09:52:48;;;;;;;4.75;4.35;;;16.10;99.90;;;;;;5110719;28;20276;-62
2021/05/20 09:55:22;;;;;;;5.20;4.80;;;16.20;99.90;;;;;;5105813;28;20283;-63
2021/05/20 09:57:49;;;;;;;5.18;4.68;;;16.30;99.90;;;;;;5111744;28;20279;-60
2021/05/20 10:00:21;;;;;;;5.10;4.70;;;16.80;99.90;;;;;;5114293;28;20219;-60
2021/05/20 10:02:59;;;;;;;4.93;4.50;;;17.30;99.90;;;;;;5114318;28;20279;-61
2021/05/20 10:09:15;;;;;;;5.10;4.60;;;18.20;99.90;;;;;;5110097;28;20221;-61
2021/05/20 10:11:43;;;;;;;5.82;4.97;;;18.50;99.90;;;;;;5109332;28;20286;-61
2021/05/20 10:14:11;;;;;;;5.85;5.35;;;18.20;99.90;;;;;;5107682;28;20230;-61
2021/05/20 10:16:39;;;;;;;5.60;5.20;;;17.60;99.90;;;;;;5113934;28;20264;-61
2021/05/20 10:19:07;;;;;;;6.80;5.88;;;17.20;99.90;;;;;;5113443;28;20352;-61
2021/05/20 10:21:34;;;;;;;7.15;6.55;;;17.20;99.90;;;;;;5113950;28;20252;-58
2021/05/20 10:24:06;;;;;;;6.63;6.03;;;17.20;99.90;;;;;;5113508;28;20203;-62
2021/05/20 10:26:39;;;;;;;6.47;5.88;;;17.10;99.90;;;;;;5113716;28;20195;-61
2021/05/20 10:29:09;;;;;;;7.15;6.45;;;17.20;99.90;;;;;;5113552;28;20274;-61
2021/05/20 10:31:40;;;;;;;7.15;6.55;;;17.50;99.90;;;;;;5113750;28;20293;-62
2021/05/20 10:34:08;;;;;;;6.85;6.15;;;17.70;99.90;;;;;;5113742;28;20211;-61
2021/05/20 10:36:36;;;;;;;6.30;5.80;;;17.60;99.90;;;;;;5113625;28;20317;-62
2021/05/20 10:39:19;;;;;;;6.93;6.28;;;17.50;99.90;;;;;;5113037;28;20231;-62
2021/05/20 10:41:46;;;;;;;5.90;5.40;;;17.30;99.90;;;;;;5113379;28;20300;-63
2021/05/20 10:44:14;;;;;;;6.03;5.40;;;17.00;99.90;;;;;;5112975;28;20796;-63
2021/05/20 10:47:01;;;;;;;8.13;6.70;;;17.20;99.90;;;;;;5113089;28;20227;-62
2021/05/20 10:50:01;;;;;;;7.03;6.43;;;17.20;99.90;;;;;;5113223;28;20248;-61
2021/05/20 10:52:42;;;;;;;7.47;6.20;;;17.20;99.90;;;;;;5112865;28;20241;-63
2021/05/20 10:55:11;;;;;;;6.28;5.78;;;17.30;99.90;;;;;;5112697;28;20619;-63
2021/05/20 10:57:54;;;;;;;6.38;5.78;;;17.20;99.90;;;;;;5113199;28;20655;-60
2021/05/20 11:00:39;;;;;;;5.40;4.90;;;17.20;99.90;;;;;;5113227;28;20203;-59
2021/05/20 11:03:07;;;;;;;5.65;5.15;;;17.20;99.90;;;;;;5113164;28;20187;-66
2021/05/20 11:05:53;;;;;;;8.25;6.05;;;17.30;99.90;;;;;;5113334;28;20225;-64
2021/05/20 11:09:00;;;;;;;6.13;5.22;;;17.40;99.90;;;;;;5113037;28;20266;-63
2021/05/20 11:11:58;;;;;;;5.85;5.25;;;17.80;99.90;;;;;;5112904;28;20203;-63
2021/05/20 11:14:50;;;;;;;5.50;5.00;;;18.30;99.90;;;;;;5113117;28;20211;-64
2021/05/20 11:17:32;;;;;;;7.13;5.68;;;18.40;99.90;;;;;;5112730;28;20744;-62
2021/05/20 11:20:43;;;;;;;6.43;5.47;;;18.20;99.90;;;;;;5112773;28;20268;-62
2021/05/20 11:23:25;;;;;;;5.47;4.60;;;18.00;99.90;;;;;;5113038;28;20215;-61
2021/05/20 11:26:23;;;;;;;5.35;4.95;;;17.70;99.90;;;;;;5112808;28;20183;-61
2021/05/20 11:29:05;;;;;;;5.72;5.22;;;17.50;99.90;;;;;;5112852;28;20310;-60
2021/05/20 11:31:33;;;;;;;5.20;4.70;;;17.20;99.90;;;;;;5112724;28;20233;-62
2021/05/20 11:36:50;;;;;;;5.68;5.18;;;16.90;99.90;;;;;;5110065;28;20282;-62
2021/05/20 11:39:19;;;;;;;5.38;4.85;;;17.00;99.90;;;;;;5112116;28;20254;-63
2021/05/20 11:41:48;;;;;;;6.13;5.00;;;17.00;99.90;;;;;;5109239;28;20237;-61
2021/05/20 11:44:18;;;;;;;6.20;5.40;;;17.10;99.90;;;;;;5112443;28;20261;-62
2021/05/20 11:46:48;;;;;;;5.50;4.50;;;17.20;99.90;;;;;;5112270;28;20722;-62
2021/05/20 11:49:19;;;;;;;4.75;4.32;;;17.30;99.90;;;;;;5112433;28;20184;-63
2021/05/20 11:51:52;;;;;;;4.35;3.95;;;17.50;99.90;;;;;;5111605;28;20217;-62
2021/05/20 11:54:22;;;;;;;5.13;3.70;;;17.70;99.90;;;;;;5112229;28;20278;-62
2021/05/20 11:56:52;;;;;;;4.18;2.67;;;17.80;99.90;;;;;;5111812;28;20207;-63
2021/05/20 11:59:42;;;;;;;3.95;3.00;;;17.80;99.90;;;;;;5111751;28;20671;-63
2021/05/20 12:02:12;;;;;;;2.97;2.47;;;17.80;99.90;;;;;;5109383;28;20263;-62
2021/05/20 12:04:39;;;;;;;2.80;2.60;;;17.90;99.90;;;;;;5111124;28;20588;-63
2021/05/20 12:07:07;;;;;;;3.65;3.35;;;18.00;99.90;;;;;;5111993;28;20655;-62
2021/05/20 12:09:35;;;;;;;3.20;2.90;;;18.20;99.90;;;;;;5112038;28;20206;-61
2021/05/20 12:12:09;;;;;;;3.70;2.85;;;18.30;99.90;;;;;;5112062;28;20199;-61
2021/05/20 12:14:37;;;;;;;3.40;2.78;;;18.20;99.90;;;;;;5113573;28;20204;-62
2021/05/20 12:17:07;;;;;;;4.05;2.67;;;18.10;99.90;;;;;;5115768;28;20610;-63
2021/05/20 12:19:37;;;;;;;4.00;3.22;;;18.00;99.90;;;;;;5115930;28;20581;-62
2021/05/20 12:22:08;;;;;;;4.68;3.10;;;17.80;99.90;;;;;;5116270;28;20293;-61
2021/05/20 12:24:38;;;;;;;3.45;3.10;;;17.60;99.90;;;;;;5115305;28;20216;-62
2021/05/20 12:27:14;;;;;;;3.55;3.25;;;17.50;99.90;;;;;;5114994;28;20302;-62
2021/05/20 12:29:44;;;;;;;4.57;3.35;;;17.40;99.90;;;;;;5095591;28;20184;-62
2021/05/20 12:32:30;;;;;;;3.03;2.80;;;17.50;99.90;;;;;;5104023;28;20186;-63
2021/05/20 12:35:27;;;;;;;4.70;2.80;;;17.60;99.90;;;;;;5115562;28;20270;-61
2021/05/20 12:38:06;;;;;;;3.05;2.75;;;17.90;99.90;;;;;;5091138;28;20635;-62
2021/05/20 12:40:37;;;;;;;2.90;2.42;;;18.10;99.90;;;;;;5117965;27;20321;-61
2021/05/20 12:43:17;;;;;;;2.42;2.22;;;18.40;99.90;;;;;;5115086;28;20188;-63
2021/05/20 12:45:55;;;;;;;3.58;2.30;;;18.70;99.90;;;;;;5115119;28;20218;-62
2021/05/20 12:48:32;;;;;;;2.30;1.90;;;18.80;99.90;;;;;;5115892;28;20270;-62
2021/05/20 12:51:02;;;;;;;2.78;2.30;;;19.00;99.90;;;;;;5115980;28;20215;-62
2021/05/20 12:53:33;;;;;;;2.63;2.25;;;19.30;99.90;;;;;;5115552;28;20630;-62
2021/05/20 12:56:04;;;;;;;1.80;1.70;;;19.50;99.90;;;;;;5115783;28;20237;-62
2021/05/20 12:58:52;;;;;;;2.05;1.92;;;19.60;99.90;;;;;;5115787;28;20238;-62
2021/05/20 13:01:20;;;;;;;3.63;2.40;;;19.50;99.90;;;;;;5115271;28;20694;-62
2021/05/20 13:03:49;;;;;;;2.70;1.75;;;19.30;99.90;;;;;;5115514;28;20199;-62
2021/05/20 13:06:24;;;;;;;3.35;2.30;;;19.20;99.90;;;;;;5115558;28;20273;-62